sensor_id;sensor_type;location;lat;lon;timestamp;P1;durP1;ratioP1;P2;durP2;ratioP2
79597;SDS011;69081;53.572;9.970;2023-04-15T00:00:04;42.63;;;27.27;;
79597;SDS011;69081;53.572;9.970;2023-04-15T00:02:34;4.65;;;3.90;;
79597;SDS011;69081;53.572;9.970;2023-04-15T00:05:03;6.30;;;5.10;;
79597;SDS011;69081;53.572;9.970;2023-04-15T00:07:31;10.60;;;7.47;;
79597;SDS011;69081;53.572;9.970;2023-04-15T00:10:04;5.20;;;3.95;;
79597;SDS011;69081;53.572;9.970;2023-04-15T00:12:32;7.22;;;3.97;;
79597;SDS011;69081;53.572;9.970;2023-04-15T00:15:00;4.53;;;3.30;;
79597;SDS011;69081;53.572;9.970;2023-04-15T00:17:28;4.65;;;4.03;;
79597;SDS011;69081;53.572;9.970;2023-04-15T00:19:59;5.32;;;3.58;;
79597;SDS011;69081;53.572;9.970;2023-04-15T00:22:27;4.60;;;3.63;;
79597;SDS011;69081;53.572;9.970;2023-04-15T00:24:55;6.03;;;3.55;;
79597;SDS011;69081;53.572;9.970;2023-04-15T00:27:24;4.10;;;2.97;;
79597;SDS011;69081;53.572;9.970;2023-04-15T00:29:52;4.25;;;3.05;;
79597;SDS011;69081;53.572;9.970;2023-04-15T00:32:20;4.55;;;3.10;;
79597;SDS011;69081;53.572;9.970;2023-04-15T00:34:47;4.80;;;3.47;;
79597;SDS011;69081;53.572;9.970;2023-04-15T00:37:16;4.22;;;3.30;;
79597;SDS011;69081;53.572;9.970;2023-04-15T00:39:46;4.57;;;3.42;;
79597;SDS011;69081;53.572;9.970;2023-04-15T00:42:14;4.60;;;3.38;;
79597;SDS011;69081;53.572;9.970;2023-04-15T00:44:43;4.28;;;2.95;;
79597;SDS011;69081;53.572;9.970;2023-04-15T00:47:11;4.15;;;2.92;;
79597;SDS011;69081;53.572;9.970;2023-04-15T00:49:39;4.53;;;3.28;;
79597;SDS011;69081;53.572;9.970;2023-04-15T00:52:10;4.22;;;3.15;;
79597;SDS011;69081;53.572;9.970;2023-04-15T00:54:38;4.38;;;3.15;;
79597;SDS011;69081;53.572;9.970;2023-04-15T00:57:06;5.05;;;3.35;;
79597;SDS011;69081;53.572;9.970;2023-04-15T00:59:35;4.93;;;3.42;;
79597;SDS011;69081;53.572;9.970;2023-04-15T01:02:04;4.97;;;3.47;;
79597;SDS011;69081;53.572;9.970;2023-04-15T01:04:32;5.22;;;3.70;;
79597;SDS011;69081;53.572;9.970;2023-04-15T01:07:03;5.15;;;3.33;;
79597;SDS011;69081;53.572;9.970;2023-04-15T01:09:32;4.45;;;3.13;;
79597;SDS011;69081;53.572;9.970;2023-04-15T01:12:03;4.85;;;3.60;;
79597;SDS011;69081;53.572;9.970;2023-04-15T01:14:38;7.00;;;4.28;;
79597;SDS011;69081;53.572;9.970;2023-04-15T01:17:08;5.82;;;4.03;;
79597;SDS011;69081;53.572;9.970;2023-04-15T01:19:37;4.82;;;3.65;;
79597;SDS011;69081;53.572;9.970;2023-04-15T01:22:08;4.60;;;3.33;;
79597;SDS011;69081;53.572;9.970;2023-04-15T01:24:39;5.25;;;3.35;;
79597;SDS011;69081;53.572;9.970;2023-04-15T01:27:13;5.07;;;3.67;;
79597;SDS011;69081;53.572;9.970;2023-04-15T01:29:42;5.28;;;3.58;;
79597;SDS011;69081;53.572;9.970;2023-04-15T01:32:10;4.75;;;3.75;;
79597;SDS011;69081;53.572;9.970;2023-04-15T01:34:38;5.60;;;3.70;;
79597;SDS011;69081;53.572;9.970;2023-04-15T01:37:06;4.97;;;3.85;;
79597;SDS011;69081;53.572;9.970;2023-04-15T01:39:43;4.93;;;3.22;;
79597;SDS011;69081;53.572;9.970;2023-04-15T01:42:14;5.18;;;4.05;;
79597;SDS011;69081;53.572;9.970;2023-04-15T01:44:44;6.18;;;4.07;;
79597;SDS011;69081;53.572;9.970;2023-04-15T01:47:11;5.35;;;4.10;;
79597;SDS011;69081;53.572;9.970;2023-04-15T01:49:41;5.72;;;3.97;;
79597;SDS011;69081;53.572;9.970;2023-04-15T01:52:12;7.80;;;4.28;;
79597;SDS011;69081;53.572;9.970;2023-04-15T01:54:46;5.82;;;4.15;;
79597;SDS011;69081;53.572;9.970;2023-04-15T01:57:15;6.80;;;4.05;;
79597;SDS011;69081;53.572;9.970;2023-04-15T01:59:43;6.40;;;4.28;;
79597;SDS011;69081;53.572;9.970;2023-04-15T02:02:12;4.82;;;3.75;;
79597;SDS011;69081;53.572;9.970;2023-04-15T02:04:40;7.03;;;4.38;;
79597;SDS011;69081;53.572;9.970;2023-04-15T02:07:12;5.90;;;4.13;;
79597;SDS011;69081;53.572;9.970;2023-04-15T02:09:40;5.80;;;4.07;;
79597;SDS011;69081;53.572;9.970;2023-04-15T02:12:12;5.40;;;3.88;;
79597;SDS011;69081;53.572;9.970;2023-04-15T02:14:41;5.90;;;3.88;;
79597;SDS011;69081;53.572;9.970;2023-04-15T02:17:09;5.20;;;3.83;;
79597;SDS011;69081;53.572;9.970;2023-04-15T02:19:37;5.60;;;4.00;;
79597;SDS011;69081;53.572;9.970;2023-04-15T02:22:09;5.60;;;4.43;;
79597;SDS011;69081;53.572;9.970;2023-04-15T02:24:43;8.23;;;3.95;;
79597;SDS011;69081;53.572;9.970;2023-04-15T02:27:14;7.25;;;4.85;;
79597;SDS011;69081;53.572;9.970;2023-04-15T02:29:45;5.97;;;4.55;;
79597;SDS011;69081;53.572;9.970;2023-04-15T02:32:13;6.05;;;4.03;;
79597;SDS011;69081;53.572;9.970;2023-04-15T02:34:43;5.78;;;3.92;;
79597;SDS011;69081;53.572;9.970;2023-04-15T02:37:13;5.03;;;3.72;;
79597;SDS011;69081;53.572;9.970;2023-04-15T02:39:42;8.00;;;5.47;;
79597;SDS011;69081;53.572;9.970;2023-04-15T02:42:10;5.85;;;4.43;;
79597;SDS011;69081;53.572;9.970;2023-04-15T02:44:41;7.90;;;5.43;;
79597;SDS011;69081;53.572;9.970;2023-04-15T02:47:11;7.03;;;5.28;;
79597;SDS011;69081;53.572;9.970;2023-04-15T02:49:40;5.97;;;4.40;;
79597;SDS011;69081;53.572;9.970;2023-04-15T02:52:10;6.80;;;4.60;;
79597;SDS011;69081;53.572;9.970;2023-04-15T02:57:08;7.00;;;4.90;;
79597;SDS011;69081;53.572;9.970;2023-04-15T02:59:43;8.00;;;5.32;;
79597;SDS011;69081;53.572;9.970;2023-04-15T03:02:19;10.27;;;5.38;;
79597;SDS011;69081;53.572;9.970;2023-04-15T03:04:58;7.75;;;5.20;;
79597;SDS011;69081;53.572;9.970;2023-04-15T03:07:26;6.88;;;5.03;;
79597;SDS011;69081;53.572;9.970;2023-04-15T03:09:58;8.32;;;5.60;;
79597;SDS011;69081;53.572;9.970;2023-04-15T03:12:26;7.47;;;5.70;;
79597;SDS011;69081;53.572;9.970;2023-04-15T03:14:55;8.52;;;5.35;;
79597;SDS011;69081;53.572;9.970;2023-04-15T03:17:25;7.13;;;5.68;;
79597;SDS011;69081;53.572;9.970;2023-04-15T03:19:55;8.35;;;5.40;;
79597;SDS011;69081;53.572;9.970;2023-04-15T03:22:23;7.68;;;4.95;;
79597;SDS011;69081;53.572;9.970;2023-04-15T03:24:53;8.40;;;5.60;;
79597;SDS011;69081;53.572;9.970;2023-04-15T03:27:21;7.00;;;5.07;;
79597;SDS011;69081;53.572;9.970;2023-04-15T03:29:50;7.82;;;5.65;;
79597;SDS011;69081;53.572;9.970;2023-04-15T03:32:23;8.10;;;5.00;;
79597;SDS011;69081;53.572;9.970;2023-04-15T03:34:53;8.95;;;5.45;;
79597;SDS011;69081;53.572;9.970;2023-04-15T03:37:21;8.77;;;5.55;;
79597;SDS011;69081;53.572;9.970;2023-04-15T03:39:49;8.50;;;5.93;;
79597;SDS011;69081;53.572;9.970;2023-04-15T03:42:21;8.85;;;6.18;;
79597;SDS011;69081;53.572;9.970;2023-04-15T03:44:49;8.38;;;5.78;;
79597;SDS011;69081;53.572;9.970;2023-04-15T03:47:17;8.13;;;5.88;;
79597;SDS011;69081;53.572;9.970;2023-04-15T03:49:46;9.15;;;6.03;;
79597;SDS011;69081;53.572;9.970;2023-04-15T03:52:15;8.27;;;5.57;;
79597;SDS011;69081;53.572;9.970;2023-04-15T03:54:43;11.93;;;6.80;;
79597;SDS011;69081;53.572;9.970;2023-04-15T03:57:11;7.70;;;6.07;;
79597;SDS011;69081;53.572;9.970;2023-04-15T03:59:43;12.52;;;7.10;;
79597;SDS011;69081;53.572;9.970;2023-04-15T04:02:10;10.55;;;7.32;;
79597;SDS011;69081;53.572;9.970;2023-04-15T04:04:45;10.30;;;6.22;;
79597;SDS011;69081;53.572;9.970;2023-04-15T04:07:16;10.45;;;6.45;;
79597;SDS011;69081;53.572;9.970;2023-04-15T04:09:47;8.57;;;6.28;;
79597;SDS011;69081;53.572;9.970;2023-04-15T04:12:14;9.52;;;6.50;;
79597;SDS011;69081;53.572;9.970;2023-04-15T04:14:43;9.57;;;6.63;;
79597;SDS011;69081;53.572;9.970;2023-04-15T04:17:11;12.65;;;8.15;;
79597;SDS011;69081;53.572;9.970;2023-04-15T04:19:39;11.18;;;7.55;;
79597;SDS011;69081;53.572;9.970;2023-04-15T04:22:17;11.10;;;7.53;;
79597;SDS011;69081;53.572;9.970;2023-04-15T04:24:44;13.40;;;8.13;;
79597;SDS011;69081;53.572;9.970;2023-04-15T04:27:15;12.50;;;7.00;;
79597;SDS011;69081;53.572;9.970;2023-04-15T04:29:42;12.82;;;7.82;;
79597;SDS011;69081;53.572;9.970;2023-04-15T04:32:15;10.38;;;7.05;;
79597;SDS011;69081;53.572;9.970;2023-04-15T04:34:43;13.77;;;8.57;;
79597;SDS011;69081;53.572;9.970;2023-04-15T04:37:11;12.90;;;8.02;;
79597;SDS011;69081;53.572;9.970;2023-04-15T04:39:41;14.18;;;8.60;;
79597;SDS011;69081;53.572;9.970;2023-04-15T04:42:09;11.63;;;7.70;;
79597;SDS011;69081;53.572;9.970;2023-04-15T04:44:37;13.23;;;8.32;;
79597;SDS011;69081;53.572;9.970;2023-04-15T04:47:11;14.38;;;9.63;;
79597;SDS011;69081;53.572;9.970;2023-04-15T04:49:40;15.00;;;9.10;;
79597;SDS011;69081;53.572;9.970;2023-04-15T04:52:08;13.70;;;8.63;;
79597;SDS011;69081;53.572;9.970;2023-04-15T04:54:36;17.10;;;8.73;;
79597;SDS011;69081;53.572;9.970;2023-04-15T04:57:06;15.15;;;9.00;;
79597;SDS011;69081;53.572;9.970;2023-04-15T04:59:38;14.60;;;9.98;;
79597;SDS011;69081;53.572;9.970;2023-04-15T05:02:13;16.00;;;10.77;;
79597;SDS011;69081;53.572;9.970;2023-04-15T05:05:00;14.80;;;9.82;;
79597;SDS011;69081;53.572;9.970;2023-04-15T05:07:27;16.05;;;10.70;;
79597;SDS011;69081;53.572;9.970;2023-04-15T05:09:55;17.85;;;10.98;;
79597;SDS011;69081;53.572;9.970;2023-04-15T05:12:24;16.50;;;9.88;;
79597;SDS011;69081;53.572;9.970;2023-04-15T05:14:52;17.30;;;10.85;;
79597;SDS011;69081;53.572;9.970;2023-04-15T05:17:20;16.60;;;11.13;;
79597;SDS011;69081;53.572;9.970;2023-04-15T05:22:35;18.88;;;11.70;;
79597;SDS011;69081;53.572;9.970;2023-04-15T05:25:03;18.35;;;11.48;;
79597;SDS011;69081;53.572;9.970;2023-04-15T05:27:33;19.73;;;12.77;;
79597;SDS011;69081;53.572;9.970;2023-04-15T05:30:01;19.60;;;12.05;;
79597;SDS011;69081;53.572;9.970;2023-04-15T05:32:29;18.80;;;12.07;;
79597;SDS011;69081;53.572;9.970;2023-04-15T05:34:56;21.35;;;13.10;;
79597;SDS011;69081;53.572;9.970;2023-04-15T05:37:26;24.38;;;13.27;;
79597;SDS011;69081;53.572;9.970;2023-04-15T05:39:53;20.40;;;12.25;;
79597;SDS011;69081;53.572;9.970;2023-04-15T05:42:22;23.38;;;12.82;;
79597;SDS011;69081;53.572;9.970;2023-04-15T05:44:51;19.08;;;11.57;;
79597;SDS011;69081;53.572;9.970;2023-04-15T05:47:21;23.02;;;13.50;;
79597;SDS011;69081;53.572;9.970;2023-04-15T05:49:51;23.63;;;13.57;;
79597;SDS011;69081;53.572;9.970;2023-04-15T05:57:15;20.08;;;12.30;;
79597;SDS011;69081;53.572;9.970;2023-04-15T05:59:43;22.02;;;13.02;;
79597;SDS011;69081;53.572;9.970;2023-04-15T06:02:13;20.13;;;13.25;;
79597;SDS011;69081;53.572;9.970;2023-04-15T06:04:43;19.27;;;12.93;;
79597;SDS011;69081;53.572;9.970;2023-04-15T06:07:10;24.60;;;13.90;;
79597;SDS011;69081;53.572;9.970;2023-04-15T06:09:38;23.50;;;13.85;;
79597;SDS011;69081;53.572;9.970;2023-04-15T06:12:06;24.98;;;14.00;;
79597;SDS011;69081;53.572;9.970;2023-04-15T06:14:37;21.38;;;14.18;;
79597;SDS011;69081;53.572;9.970;2023-04-15T06:17:05;20.15;;;13.00;;
79597;SDS011;69081;53.572;9.970;2023-04-15T06:19:35;20.25;;;13.30;;
79597;SDS011;69081;53.572;9.970;2023-04-15T06:22:02;20.55;;;13.57;;
79597;SDS011;69081;53.572;9.970;2023-04-15T06:24:32;25.50;;;13.52;;
79597;SDS011;69081;53.572;9.970;2023-04-15T06:27:02;22.67;;;14.43;;
79597;SDS011;69081;53.572;9.970;2023-04-15T06:29:30;23.35;;;14.20;;
79597;SDS011;69081;53.572;9.970;2023-04-15T06:31:57;23.95;;;14.48;;
79597;SDS011;69081;53.572;9.970;2023-04-15T06:34:25;24.35;;;15.15;;
79597;SDS011;69081;53.572;9.970;2023-04-15T06:36:54;28.35;;;16.17;;
79597;SDS011;69081;53.572;9.970;2023-04-15T06:39:22;24.67;;;15.18;;
79597;SDS011;69081;53.572;9.970;2023-04-15T06:41:50;27.95;;;15.55;;
79597;SDS011;69081;53.572;9.970;2023-04-15T06:44:17;23.63;;;15.10;;
79597;SDS011;69081;53.572;9.970;2023-04-15T06:46:45;25.63;;;15.95;;
79597;SDS011;69081;53.572;9.970;2023-04-15T06:49:13;26.33;;;15.90;;
79597;SDS011;69081;53.572;9.970;2023-04-15T06:51:41;33.00;;;19.65;;
79597;SDS011;69081;53.572;9.970;2023-04-15T06:54:13;26.20;;;16.52;;
79597;SDS011;69081;53.572;9.970;2023-04-15T06:56:41;30.60;;;18.10;;
79597;SDS011;69081;53.572;9.970;2023-04-15T06:59:09;26.73;;;17.23;;
79597;SDS011;69081;53.572;9.970;2023-04-15T07:01:36;25.02;;;16.95;;
79597;SDS011;69081;53.572;9.970;2023-04-15T07:04:04;32.33;;;18.75;;
79597;SDS011;69081;53.572;9.970;2023-04-15T07:06:32;31.33;;;19.02;;
79597;SDS011;69081;53.572;9.970;2023-04-15T07:09:00;33.50;;;20.13;;
79597;SDS011;69081;53.572;9.970;2023-04-15T07:11:34;33.60;;;18.45;;
79597;SDS011;69081;53.572;9.970;2023-04-15T07:14:07;31.27;;;19.02;;
79597;SDS011;69081;53.572;9.970;2023-04-15T07:16:35;28.95;;;18.05;;
79597;SDS011;69081;53.572;9.970;2023-04-15T07:19:02;33.90;;;19.60;;
79597;SDS011;69081;53.572;9.970;2023-04-15T07:21:30;35.90;;;21.17;;
79597;SDS011;69081;53.572;9.970;2023-04-15T07:23:58;30.67;;;16.90;;
79597;SDS011;69081;53.572;9.970;2023-04-15T07:26:26;27.42;;;17.60;;
79597;SDS011;69081;53.572;9.970;2023-04-15T07:28:57;34.45;;;19.17;;
79597;SDS011;69081;53.572;9.970;2023-04-15T07:31:25;36.95;;;19.75;;
79597;SDS011;69081;53.572;9.970;2023-04-15T07:33:53;34.88;;;20.02;;
79597;SDS011;69081;53.572;9.970;2023-04-15T07:36:24;37.10;;;20.48;;
79597;SDS011;69081;53.572;9.970;2023-04-15T07:38:51;31.38;;;19.90;;
79597;SDS011;69081;53.572;9.970;2023-04-15T07:43:48;33.35;;;19.80;;
79597;SDS011;69081;53.572;9.970;2023-04-15T07:46:17;34.95;;;19.23;;
79597;SDS011;69081;53.572;9.970;2023-04-15T07:48:45;35.60;;;20.23;;
79597;SDS011;69081;53.572;9.970;2023-04-15T07:51:13;34.83;;;19.15;;
79597;SDS011;69081;53.572;9.970;2023-04-15T07:53:41;33.08;;;19.67;;
79597;SDS011;69081;53.572;9.970;2023-04-15T07:56:09;34.05;;;20.00;;
79597;SDS011;69081;53.572;9.970;2023-04-15T07:58:37;38.75;;;20.38;;
79597;SDS011;69081;53.572;9.970;2023-04-15T08:01:05;35.92;;;20.23;;
79597;SDS011;69081;53.572;9.970;2023-04-15T08:03:34;35.97;;;20.73;;
79597;SDS011;69081;53.572;9.970;2023-04-15T08:06:02;39.40;;;19.92;;
79597;SDS011;69081;53.572;9.970;2023-04-15T08:08:30;40.88;;;21.27;;
79597;SDS011;69081;53.572;9.970;2023-04-15T08:10:57;40.78;;;22.15;;
79597;SDS011;69081;53.572;9.970;2023-04-15T08:13:25;36.28;;;20.98;;
79597;SDS011;69081;53.572;9.970;2023-04-15T08:18:41;36.47;;;21.88;;
79597;SDS011;69081;53.572;9.970;2023-04-15T08:21:09;35.63;;;21.60;;
79597;SDS011;69081;53.572;9.970;2023-04-15T08:23:36;35.85;;;21.77;;
79597;SDS011;69081;53.572;9.970;2023-04-15T08:26:04;37.17;;;23.20;;
79597;SDS011;69081;53.572;9.970;2023-04-15T08:28:32;44.13;;;23.98;;
79597;SDS011;69081;53.572;9.970;2023-04-15T08:31:00;41.15;;;20.83;;
79597;SDS011;69081;53.572;9.970;2023-04-15T08:33:29;33.83;;;20.50;;
79597;SDS011;69081;53.572;9.970;2023-04-15T08:35:58;36.30;;;22.02;;
79597;SDS011;69081;53.572;9.970;2023-04-15T08:38:25;35.22;;;21.17;;
79597;SDS011;69081;53.572;9.970;2023-04-15T08:40:53;32.33;;;19.92;;
79597;SDS011;69081;53.572;9.970;2023-04-15T08:43:22;37.50;;;22.25;;
79597;SDS011;69081;53.572;9.970;2023-04-15T08:45:52;37.58;;;21.85;;
79597;SDS011;69081;53.572;9.970;2023-04-15T08:48:20;38.78;;;22.55;;
79597;SDS011;69081;53.572;9.970;2023-04-15T08:50:49;35.83;;;21.58;;
79597;SDS011;69081;53.572;9.970;2023-04-15T08:53:19;32.70;;;20.35;;
79597;SDS011;69081;53.572;9.970;2023-04-15T08:55:50;34.97;;;20.33;;
79597;SDS011;69081;53.572;9.970;2023-04-15T08:58:18;41.13;;;21.33;;
79597;SDS011;69081;53.572;9.970;2023-04-15T09:00:46;36.42;;;21.00;;
79597;SDS011;69081;53.572;9.970;2023-04-15T09:03:14;34.08;;;21.73;;
79597;SDS011;69081;53.572;9.970;2023-04-15T09:05:43;37.83;;;21.60;;
79597;SDS011;69081;53.572;9.970;2023-04-15T09:08:11;36.70;;;20.52;;
79597;SDS011;69081;53.572;9.970;2023-04-15T09:10:40;35.30;;;20.92;;
79597;SDS011;69081;53.572;9.970;2023-04-15T09:13:08;40.20;;;22.77;;
79597;SDS011;69081;53.572;9.970;2023-04-15T09:15:36;40.83;;;23.35;;
79597;SDS011;69081;53.572;9.970;2023-04-15T09:18:04;37.88;;;23.33;;
79597;SDS011;69081;53.572;9.970;2023-04-15T09:20:37;35.58;;;20.65;;
79597;SDS011;69081;53.572;9.970;2023-04-15T09:23:10;40.60;;;21.92;;
79597;SDS011;69081;53.572;9.970;2023-04-15T09:25:40;41.92;;;23.00;;
79597;SDS011;69081;53.572;9.970;2023-04-15T09:28:08;37.03;;;21.88;;
79597;SDS011;69081;53.572;9.970;2023-04-15T09:30:37;37.65;;;22.23;;
79597;SDS011;69081;53.572;9.970;2023-04-15T09:33:04;37.20;;;21.38;;
79597;SDS011;69081;53.572;9.970;2023-04-15T09:35:34;45.88;;;26.48;;
79597;SDS011;69081;53.572;9.970;2023-04-15T09:38:02;38.25;;;22.88;;
79597;SDS011;69081;53.572;9.970;2023-04-15T09:40:32;39.15;;;23.45;;
79597;SDS011;69081;53.572;9.970;2023-04-15T09:43:02;42.30;;;21.98;;
79597;SDS011;69081;53.572;9.970;2023-04-15T09:45:30;39.15;;;22.20;;
79597;SDS011;69081;53.572;9.970;2023-04-15T09:47:59;38.70;;;22.38;;
79597;SDS011;69081;53.572;9.970;2023-04-15T09:50:41;42.65;;;23.92;;
79597;SDS011;69081;53.572;9.970;2023-04-15T09:53:09;37.35;;;21.98;;
79597;SDS011;69081;53.572;9.970;2023-04-15T09:55:37;36.90;;;23.13;;
79597;SDS011;69081;53.572;9.970;2023-04-15T09:58:08;35.33;;;21.73;;
79597;SDS011;69081;53.572;9.970;2023-04-15T10:00:44;37.20;;;21.90;;
79597;SDS011;69081;53.572;9.970;2023-04-15T10:03:14;36.63;;;21.42;;
79597;SDS011;69081;53.572;9.970;2023-04-15T10:05:46;36.78;;;20.83;;
79597;SDS011;69081;53.572;9.970;2023-04-15T10:08:16;37.97;;;21.02;;
79597;SDS011;69081;53.572;9.970;2023-04-15T10:10:45;36.00;;;20.10;;
79597;SDS011;69081;53.572;9.970;2023-04-15T10:13:16;36.78;;;20.48;;
79597;SDS011;69081;53.572;9.970;2023-04-15T10:15:47;35.15;;;20.30;;
79597;SDS011;69081;53.572;9.970;2023-04-15T10:18:17;34.53;;;20.42;;
79597;SDS011;69081;53.572;9.970;2023-04-15T10:20:46;36.05;;;21.33;;
79597;SDS011;69081;53.572;9.970;2023-04-15T10:23:14;31.05;;;18.48;;
79597;SDS011;69081;53.572;9.970;2023-04-15T10:25:44;30.67;;;19.65;;
79597;SDS011;69081;53.572;9.970;2023-04-15T10:28:12;43.88;;;24.83;;
79597;SDS011;69081;53.572;9.970;2023-04-15T10:30:42;36.30;;;20.40;;
79597;SDS011;69081;53.572;9.970;2023-04-15T10:33:10;32.15;;;19.45;;
79597;SDS011;69081;53.572;9.970;2023-04-15T10:35:38;30.00;;;19.73;;
79597;SDS011;69081;53.572;9.970;2023-04-15T10:41:12;30.92;;;19.90;;
79597;SDS011;69081;53.572;9.970;2023-04-15T10:43:51;33.00;;;19.48;;
79597;SDS011;69081;53.572;9.970;2023-04-15T10:46:22;31.95;;;19.92;;
79597;SDS011;69081;53.572;9.970;2023-04-15T10:48:52;32.17;;;20.33;;
79597;SDS011;69081;53.572;9.970;2023-04-15T10:51:29;32.38;;;18.98;;
79597;SDS011;69081;53.572;9.970;2023-04-15T10:53:58;28.65;;;18.17;;
79597;SDS011;69081;53.572;9.970;2023-04-15T10:56:27;27.20;;;17.38;;
79597;SDS011;69081;53.572;9.970;2023-04-15T10:58:57;24.48;;;17.00;;
79597;SDS011;69081;53.572;9.970;2023-04-15T11:07:33;21.75;;;14.85;;
79597;SDS011;69081;53.572;9.970;2023-04-15T11:10:02;23.40;;;14.35;;
79597;SDS011;69081;53.572;9.970;2023-04-15T11:12:34;18.67;;;12.38;;
79597;SDS011;69081;53.572;9.970;2023-04-15T11:17:56;15.65;;;11.13;;
79597;SDS011;69081;53.572;9.970;2023-04-15T11:20:24;17.77;;;11.65;;
79597;SDS011;69081;53.572;9.970;2023-04-15T11:22:52;18.95;;;11.32;;
79597;SDS011;69081;53.572;9.970;2023-04-15T11:25:40;14.23;;;10.63;;
79597;SDS011;69081;53.572;9.970;2023-04-15T11:28:10;14.23;;;9.52;;
79597;SDS011;69081;53.572;9.970;2023-04-15T11:30:40;16.10;;;10.80;;
79597;SDS011;69081;53.572;9.970;2023-04-15T11:33:09;15.55;;;10.80;;
79597;SDS011;69081;53.572;9.970;2023-04-15T11:35:39;13.80;;;9.32;;
79597;SDS011;69081;53.572;9.970;2023-04-15T11:38:08;17.42;;;11.02;;
79597;SDS011;69081;53.572;9.970;2023-04-15T11:40:37;18.90;;;10.40;;
79597;SDS011;69081;53.572;9.970;2023-04-15T11:43:05;14.93;;;9.18;;
79597;SDS011;69081;53.572;9.970;2023-04-15T11:45:33;12.35;;;9.15;;
79597;SDS011;69081;53.572;9.970;2023-04-15T11:48:06;13.60;;;8.95;;
79597;SDS011;69081;53.572;9.970;2023-04-15T11:50:35;16.50;;;9.25;;
79597;SDS011;69081;53.572;9.970;2023-04-15T11:53:03;15.18;;;9.00;;
79597;SDS011;69081;53.572;9.970;2023-04-15T11:55:40;14.63;;;9.10;;
79597;SDS011;69081;53.572;9.970;2023-04-15T11:58:09;11.82;;;8.98;;
79597;SDS011;69081;53.572;9.970;2023-04-15T12:00:41;14.90;;;9.02;;
79597;SDS011;69081;53.572;9.970;2023-04-15T12:03:20;12.95;;;9.13;;
79597;SDS011;69081;53.572;9.970;2023-04-15T12:06:04;12.10;;;8.93;;
79597;SDS011;69081;53.572;9.970;2023-04-15T12:11:38;12.48;;;8.77;;
79597;SDS011;69081;53.572;9.970;2023-04-15T12:14:23;13.90;;;8.75;;
79597;SDS011;69081;53.572;9.970;2023-04-15T12:16:52;14.45;;;10.30;;
79597;SDS011;69081;53.572;9.970;2023-04-15T12:19:25;15.98;;;9.57;;
79597;SDS011;69081;53.572;9.970;2023-04-15T12:21:57;14.10;;;9.45;;
79597;SDS011;69081;53.572;9.970;2023-04-15T12:24:26;13.02;;;9.85;;
79597;SDS011;69081;53.572;9.970;2023-04-15T12:26:55;12.95;;;10.60;;
79597;SDS011;69081;53.572;9.970;2023-04-15T12:29:24;14.40;;;9.43;;
79597;SDS011;69081;53.572;9.970;2023-04-15T12:31:54;11.00;;;8.85;;
79597;SDS011;69081;53.572;9.970;2023-04-15T12:34:27;10.27;;;8.00;;
79597;SDS011;69081;53.572;9.970;2023-04-15T12:36:56;10.82;;;8.50;;
79597;SDS011;69081;53.572;9.970;2023-04-15T12:39:25;13.52;;;8.52;;
79597;SDS011;69081;53.572;9.970;2023-04-15T12:41:56;12.30;;;8.80;;
79597;SDS011;69081;53.572;9.970;2023-04-15T12:44:24;11.90;;;8.32;;
79597;SDS011;69081;53.572;9.970;2023-04-15T12:46:52;11.77;;;9.25;;
79597;SDS011;69081;53.572;9.970;2023-04-15T12:49:20;12.43;;;9.90;;
79597;SDS011;69081;53.572;9.970;2023-04-15T12:51:50;12.55;;;8.93;;
79597;SDS011;69081;53.572;9.970;2023-04-15T12:54:19;13.70;;;9.75;;
79597;SDS011;69081;53.572;9.970;2023-04-15T12:56:47;11.88;;;8.63;;
79597;SDS011;69081;53.572;9.970;2023-04-15T12:59:16;12.70;;;9.57;;
79597;SDS011;69081;53.572;9.970;2023-04-15T13:01:44;12.65;;;10.23;;
79597;SDS011;69081;53.572;9.970;2023-04-15T13:04:13;14.60;;;10.35;;
79597;SDS011;69081;53.572;9.970;2023-04-15T13:06:41;15.25;;;9.07;;
79597;SDS011;69081;53.572;9.970;2023-04-15T13:09:10;12.38;;;9.05;;
79597;SDS011;69081;53.572;9.970;2023-04-15T13:11:38;16.15;;;10.88;;
79597;SDS011;69081;53.572;9.970;2023-04-15T13:14:07;14.25;;;9.20;;
79597;SDS011;69081;53.572;9.970;2023-04-15T13:16:36;14.02;;;9.85;;
79597;SDS011;69081;53.572;9.970;2023-04-15T13:19:04;14.73;;;9.35;;
79597;SDS011;69081;53.572;9.970;2023-04-15T13:21:31;14.00;;;9.32;;
79597;SDS011;69081;53.572;9.970;2023-04-15T13:24:01;14.30;;;8.30;;
79597;SDS011;69081;53.572;9.970;2023-04-15T13:28:59;13.05;;;8.93;;
79597;SDS011;69081;53.572;9.970;2023-04-15T13:31:27;10.65;;;7.53;;
79597;SDS011;69081;53.572;9.970;2023-04-15T13:33:55;12.55;;;8.57;;
79597;SDS011;69081;53.572;9.970;2023-04-15T13:36:23;10.82;;;8.40;;
79597;SDS011;69081;53.572;9.970;2023-04-15T13:38:51;12.38;;;8.43;;
79597;SDS011;69081;53.572;9.970;2023-04-15T13:41:19;12.05;;;8.45;;
79597;SDS011;69081;53.572;9.970;2023-04-15T13:43:48;11.63;;;8.50;;
79597;SDS011;69081;53.572;9.970;2023-04-15T13:46:16;10.90;;;8.52;;
79597;SDS011;69081;53.572;9.970;2023-04-15T13:48:44;11.43;;;8.70;;
79597;SDS011;69081;53.572;9.970;2023-04-15T13:51:12;13.88;;;8.98;;
79597;SDS011;69081;53.572;9.970;2023-04-15T13:53:39;13.25;;;9.07;;
79597;SDS011;69081;53.572;9.970;2023-04-15T13:56:07;12.23;;;8.60;;
79597;SDS011;69081;53.572;9.970;2023-04-15T13:58:35;10.55;;;7.10;;
79597;SDS011;69081;53.572;9.970;2023-04-15T14:01:05;9.38;;;6.90;;
79597;SDS011;69081;53.572;9.970;2023-04-15T14:03:33;12.50;;;7.13;;
79597;SDS011;69081;53.572;9.970;2023-04-15T14:06:01;11.57;;;7.30;;
79597;SDS011;69081;53.572;9.970;2023-04-15T14:08:29;12.25;;;7.40;;
79597;SDS011;69081;53.572;9.970;2023-04-15T14:10:56;10.48;;;6.78;;
79597;SDS011;69081;53.572;9.970;2023-04-15T14:13:24;10.57;;;7.40;;
79597;SDS011;69081;53.572;9.970;2023-04-15T14:15:51;10.45;;;6.90;;
79597;SDS011;69081;53.572;9.970;2023-04-15T14:18:20;9.13;;;6.60;;
79597;SDS011;69081;53.572;9.970;2023-04-15T14:20:48;12.52;;;7.28;;
79597;SDS011;69081;53.572;9.970;2023-04-15T14:23:16;8.90;;;6.22;;
79597;SDS011;69081;53.572;9.970;2023-04-15T14:25:43;11.50;;;7.40;;
79597;SDS011;69081;53.572;9.970;2023-04-15T14:28:13;10.35;;;7.35;;
79597;SDS011;69081;53.572;9.970;2023-04-15T14:30:41;10.93;;;7.18;;
79597;SDS011;69081;53.572;9.970;2023-04-15T14:33:09;9.23;;;6.82;;
79597;SDS011;69081;53.572;9.970;2023-04-15T14:35:38;11.15;;;8.50;;
79597;SDS011;69081;53.572;9.970;2023-04-15T14:38:05;10.77;;;7.15;;
79597;SDS011;69081;53.572;9.970;2023-04-15T14:40:36;10.57;;;8.70;;
79597;SDS011;69081;53.572;9.970;2023-04-15T14:43:04;12.98;;;8.45;;
79597;SDS011;69081;53.572;9.970;2023-04-15T14:45:32;11.00;;;8.30;;
79597;SDS011;69081;53.572;9.970;2023-04-15T14:47:59;10.10;;;8.00;;
79597;SDS011;69081;53.572;9.970;2023-04-15T14:50:28;11.00;;;8.25;;
79597;SDS011;69081;53.572;9.970;2023-04-15T14:52:57;12.32;;;8.43;;
79597;SDS011;69081;53.572;9.970;2023-04-15T14:55:25;12.77;;;7.85;;
79597;SDS011;69081;53.572;9.970;2023-04-15T14:57:53;8.77;;;6.47;;
79597;SDS011;69081;53.572;9.970;2023-04-15T15:00:21;9.82;;;6.80;;
79597;SDS011;69081;53.572;9.970;2023-04-15T15:02:48;8.65;;;6.82;;
79597;SDS011;69081;53.572;9.970;2023-04-15T15:05:16;11.20;;;6.35;;
79597;SDS011;69081;53.572;9.970;2023-04-15T15:07:44;9.55;;;6.47;;
79597;SDS011;69081;53.572;9.970;2023-04-15T15:10:13;9.10;;;7.07;;
79597;SDS011;69081;53.572;9.970;2023-04-15T15:12:58;8.85;;;6.65;;
79597;SDS011;69081;53.572;9.970;2023-04-15T15:15:27;9.07;;;7.63;;
79597;SDS011;69081;53.572;9.970;2023-04-15T15:17:56;10.07;;;7.88;;